Aviation Digital Data Service (ADDS)

Output produced by METARs form (1520 UTC 03 June 2020)
found at http://www.aviationweather.gov/metar/data/
 
METAR text: FKKD 031500Z VRB05KT 9999 SCT020 FEW023CB 33/25 Q1009 NOSIG
Conditions at: FKKD (DOUALA (CIV/MIL), CM) observed 1500 UTC 03 June 2020
Temperature: 33.0°C (91°F)
Dewpoint: 25.0°C (77°F) [RH = 63%]
Pressure (altimeter): 29.79 inches Hg (1009.0 mb)
Winds: variable direction winds at 6 MPH (5 knots; 2.6 m/s)
Visibility: 6 or more miles (10+ km)
Ceiling: at least 12,000 feet AGL
Clouds: scattered clouds at 2000 feet AGL
few clouds at 2300 feet AGL
Weather: no significant weather observed at this time

METAR text: FKKD 031400Z VRB03KT 9999 SCT020 FEW023CB 33/25 Q1010 NOSIG
Conditions at: FKKD (DOUALA (CIV/MIL), CM) observed 1400 UTC 03 June 2020
Temperature: 33.0°C (91°F)
Dewpoint: 25.0°C (77°F) [RH = 63%]
Pressure (altimeter): 29.82 inches Hg (1010.0 mb)
Winds: variable direction winds at 3 MPH (3 knots; 1.5 m/s)
Visibility: 6 or more miles (10+ km)
Ceiling: at least 12,000 feet AGL
Clouds: scattered clouds at 2000 feet AGL
few clouds at 2300 feet AGL
Weather: no significant weather observed at this time

METAR text: FKKD 031300Z VRB04KT 9999 SCT016 FEW020CB 32/25 Q1011 NOSIG
Conditions at: FKKD (DOUALA (CIV/MIL), CM) observed 1300 UTC 03 June 2020
Temperature: 32.0°C (90°F)
Dewpoint: 25.0°C (77°F) [RH = 67%]
Pressure (altimeter): 29.85 inches Hg (1011.0 mb)
Winds: variable direction winds at 5 MPH (4 knots; 2.1 m/s)
Visibility: 6 or more miles (10+ km)
Ceiling: at least 12,000 feet AGL
Clouds: scattered clouds at 1600 feet AGL
few clouds at 2000 feet AGL
Weather: no significant weather observed at this time

METAR text: FKKD 031200Z VRB02KT 9999 SCT016 FEW020CB 32/25 Q1012 NOSIG
Conditions at: FKKD (DOUALA (CIV/MIL), CM) observed 1200 UTC 03 June 2020
Temperature: 32.0°C (90°F)
Dewpoint: 25.0°C (77°F) [RH = 67%]
Pressure (altimeter): 29.88 inches Hg (1012.0 mb)
Winds: variable direction winds at 2 MPH (2 knots; 1.0 m/s)
Visibility: 6 or more miles (10+ km)
Ceiling: at least 12,000 feet AGL
Clouds: scattered clouds at 1600 feet AGL
few clouds at 2000 feet AGL
Weather: no significant weather observed at this time

METAR text: FKKD 031100Z VRB03KT 9999 SCT016 FEW020CB 31/26 Q1013 NOSIG
Conditions at: FKKD (DOUALA (CIV/MIL), CM) observed 1100 UTC 03 June 2020
Temperature: 31.0°C (88°F)
Dewpoint: 26.0°C (79°F) [RH = 75%]
Pressure (altimeter): 29.91 inches Hg (1013.0 mb)
Winds: variable direction winds at 3 MPH (3 knots; 1.5 m/s)
Visibility: 6 or more miles (10+ km)
Ceiling: at least 12,000 feet AGL
Clouds: scattered clouds at 1600 feet AGL
few clouds at 2000 feet AGL
Weather: no significant weather observed at this time

METAR text: FKKD 031000Z VRB02KT 8000 BKN016 FEW020CB 29/26 Q1014 NOSIG
Conditions at: FKKD (DOUALA (CIV/MIL), CM) observed 1000 UTC 03 June 2020
Temperature: 29.0°C (84°F)
Dewpoint: 26.0°C (79°F) [RH = 84%]
Pressure (altimeter): 29.94 inches Hg (1014.0 mb)
Winds: variable direction winds at 2 MPH (2 knots; 1.0 m/s)
Visibility: 5 miles ( 8 km)
Ceiling: 1600 feet AGL
Clouds: broken clouds at 1600 feet AGL
few clouds at 2000 feet AGL
Weather: no significant weather observed at this time

METAR text: FKKD 030900Z VRB02KT 8000 BKN014 FEW016CB 28/26 Q1014 NOSIG
Conditions at: FKKD (DOUALA (CIV/MIL), CM) observed 0900 UTC 03 June 2020
Temperature: 28.0°C (82°F)
Dewpoint: 26.0°C (79°F) [RH = 89%]
Pressure (altimeter): 29.94 inches Hg (1014.0 mb)
Winds: variable direction winds at 2 MPH (2 knots; 1.0 m/s)
Visibility: 5 miles ( 8 km)
Ceiling: 1400 feet AGL
Clouds: broken clouds at 1400 feet AGL
few clouds at 1600 feet AGL
Weather: no significant weather observed at this time

METAR text: FKKD 030800Z 09003KT 050V140 8000 BKN013 FEW016CB 27/25 Q1014 NOSIG
Conditions at: FKKD (DOUALA (CIV/MIL), CM) observed 0800 UTC 03 June 2020
Temperature: 27.0°C (81°F)
Dewpoint: 25.0°C (77°F) [RH = 89%]
Pressure (altimeter): 29.94 inches Hg (1014.0 mb)
Winds: from the E (90 degrees) at 3 MPH (3 knots; 1.5 m/s)
Visibility: 5 miles ( 8 km)
Ceiling: 1300 feet AGL
Clouds: broken clouds at 1300 feet AGL
few clouds at 1600 feet AGL
Weather: no significant weather observed at this time

METAR text: FKKD 030700Z 12004KT 090V150 8000 BKN012 FEW015CB 26/25 Q1013 NOSIG
Conditions at: FKKD (DOUALA (CIV/MIL), CM) observed 0700 UTC 03 June 2020
Temperature: 26.0°C (79°F)
Dewpoint: 25.0°C (77°F) [RH = 94%]
Pressure (altimeter): 29.91 inches Hg (1013.0 mb)
Winds: from the ESE (120 degrees) at 5 MPH (4 knots; 2.1 m/s)
Visibility: 5 miles ( 8 km)
Ceiling: 1200 feet AGL
Clouds: broken clouds at 1200 feet AGL
few clouds at 1500 feet AGL
Weather: no significant weather observed at this time

METAR text: FKKD 030600Z 15003KT 7000 BKN013 FEW016CB 26/25 Q1012 NOSIG
Conditions at: FKKD (DOUALA (CIV/MIL), CM) observed 0600 UTC 03 June 2020
Temperature: 26.0°C (79°F)
Dewpoint: 25.0°C (77°F) [RH = 94%]
Pressure (altimeter): 29.88 inches Hg (1012.0 mb)
Winds: from the SSE (150 degrees) at 3 MPH (3 knots; 1.5 m/s)
Visibility: 4 miles ( 7 km)
Ceiling: 1300 feet AGL
Clouds: broken clouds at 1300 feet AGL
few clouds at 1600 feet AGL
Weather: no significant weather observed at this time

METAR text: FKKD 030500Z VRB02KT 6000 -TSRA BKN013 SCT016CB 26/25 Q1012 NOSIG
Conditions at: FKKD (DOUALA (CIV/MIL), CM) observed 0500 UTC 03 June 2020
Temperature: 26.0°C (79°F)
Dewpoint: 25.0°C (77°F) [RH = 94%]
Pressure (altimeter): 29.88 inches Hg (1012.0 mb)
Winds: variable direction winds at 2 MPH (2 knots; 1.0 m/s)
Visibility: 4 miles ( 6 km)
Ceiling: 1300 feet AGL
Clouds: broken clouds at 1300 feet AGL
scattered clouds at 1600 feet AGL
Weather: -TSRA  (light rain associated with thunderstorm(s))

METAR text: FKKD 030400Z 00000KT 7000 -TSRA BKN013 FEW016CB 26/25 Q1012 NOSIG
Conditions at: FKKD (DOUALA (CIV/MIL), CM) observed 0400 UTC 03 June 2020
Temperature: 26.0°C (79°F)
Dewpoint: 25.0°C (77°F) [RH = 94%]
Pressure (altimeter): 29.88 inches Hg (1012.0 mb)
Winds: calm
Visibility: 4 miles ( 7 km)
Ceiling: 1300 feet AGL
Clouds: broken clouds at 1300 feet AGL
few clouds at 1600 feet AGL
Weather: -TSRA  (light rain associated with thunderstorm(s))

METAR text: FKKD 030300Z 00000KT 6000 -RA BKN013 FEW016CB 26/25 Q1011 TEMPO 4000 -TSRA
Conditions at: FKKD (DOUALA (CIV/MIL), CM) observed 0300 UTC 03 June 2020
Temperature: 26.0°C (79°F)
Dewpoint: 25.0°C (77°F) [RH = 94%]
Pressure (altimeter): 29.85 inches Hg (1011.0 mb)
Winds: calm
Visibility: 4 miles ( 6 km)
Ceiling: 1300 feet AGL
Clouds: broken clouds at 1300 feet AGL
few clouds at 1600 feet AGL
Weather: -RA  (light rain)

METAR text: FKKD 030200Z 00000KT 9999 BKN013 FEW016CB 26/25 Q1012 NOSIG
Conditions at: FKKD (DOUALA (CIV/MIL), CM) observed 0200 UTC 03 June 2020
Temperature: 26.0°C (79°F)
Dewpoint: 25.0°C (77°F) [RH = 94%]
Pressure (altimeter): 29.88 inches Hg (1012.0 mb)
Winds: calm
Visibility: 6 or more miles (10+ km)
Ceiling: 1300 feet AGL
Clouds: broken clouds at 1300 feet AGL
few clouds at 1600 feet AGL
Weather: no significant weather observed at this time

METAR text: FKKD 030100Z VRB02KT 9999 BKN013 FEW016CB 26/25 Q1012 NOSIG
Conditions at: FKKD (DOUALA (CIV/MIL), CM) observed 0100 UTC 03 June 2020
Temperature: 26.0°C (79°F)
Dewpoint: 25.0°C (77°F) [RH = 94%]
Pressure (altimeter): 29.88 inches Hg (1012.0 mb)
Winds: variable direction winds at 2 MPH (2 knots; 1.0 m/s)
Visibility: 6 or more miles (10+ km)
Ceiling: 1300 feet AGL
Clouds: broken clouds at 1300 feet AGL
few clouds at 1600 feet AGL
Weather: no significant weather observed at this time

METAR text: FKKD 030000Z 04002KT 9999 BKN013 FEW016CB 26/25 Q1013 NOSIG
Conditions at: FKKD (DOUALA (CIV/MIL), CM) observed 0000 UTC 03 June 2020
Temperature: 26.0°C (79°F)
Dewpoint: 25.0°C (77°F) [RH = 94%]
Pressure (altimeter): 29.91 inches Hg (1013.0 mb)
Winds: from the NE (40 degrees) at 2 MPH (2 knots; 1.0 m/s)
Visibility: 6 or more miles (10+ km)
Ceiling: 1300 feet AGL
Clouds: broken clouds at 1300 feet AGL
few clouds at 1600 feet AGL
Weather: no significant weather observed at this time

METAR text: FKKD 022300Z 12002KT 9999 BKN013 FEW016CB 26/25 Q1013 NOSIG
Conditions at: FKKD (DOUALA (CIV/MIL), CM) observed 2300 UTC 02 June 2020
Temperature: 26.0°C (79°F)
Dewpoint: 25.0°C (77°F) [RH = 94%]
Pressure (altimeter): 29.91 inches Hg (1013.0 mb)
Winds: from the ESE (120 degrees) at 2 MPH (2 knots; 1.0 m/s)
Visibility: 6 or more miles (10+ km)
Ceiling: 1300 feet AGL
Clouds: broken clouds at 1300 feet AGL
few clouds at 1600 feet AGL
Weather: no significant weather observed at this time

METAR text: FKKD 022200Z 00000KT 9999 BKN014 FEW016CB 26/25 Q1013 NOSIG
Conditions at: FKKD (DOUALA (CIV/MIL), CM) observed 2200 UTC 02 June 2020
Temperature: 26.0°C (79°F)
Dewpoint: 25.0°C (77°F) [RH = 94%]
Pressure (altimeter): 29.91 inches Hg (1013.0 mb)
Winds: calm
Visibility: 6 or more miles (10+ km)
Ceiling: 1400 feet AGL
Clouds: broken clouds at 1400 feet AGL
few clouds at 1600 feet AGL
Weather: no significant weather observed at this time

METAR text: FKKD 022100Z 13001KT 9999 BKN014 FEW016CB 26/25 Q1013 NOSIG
Conditions at: FKKD (DOUALA (CIV/MIL), CM) observed 2100 UTC 02 June 2020
Temperature: 26.0°C (79°F)
Dewpoint: 25.0°C (77°F) [RH = 94%]
Pressure (altimeter): 29.91 inches Hg (1013.0 mb)
Winds: from the SE (130 degrees) at 1 MPH (1 knots; 0.5 m/s)
Visibility: 6 or more miles (10+ km)
Ceiling: 1400 feet AGL
Clouds: broken clouds at 1400 feet AGL
few clouds at 1600 feet AGL
Weather: no significant weather observed at this time

METAR text: FKKD 022000Z VRB02KT 9999 SCT013 FEW016CB 27/25 Q1012 NOSIG
Conditions at: FKKD (DOUALA (CIV/MIL), CM) observed 2000 UTC 02 June 2020
Temperature: 27.0°C (81°F)
Dewpoint: 25.0°C (77°F) [RH = 89%]
Pressure (altimeter): 29.88 inches Hg (1012.0 mb)
Winds: variable direction winds at 2 MPH (2 knots; 1.0 m/s)
Visibility: 6 or more miles (10+ km)
Ceiling: at least 12,000 feet AGL
Clouds: scattered clouds at 1300 feet AGL
few clouds at 1600 feet AGL
Weather: no significant weather observed at this time

METAR text: FKKD 021900Z VRB02KT 9999 SCT013 FEW020CB 28/25 Q1011 NOSIG
Conditions at: FKKD (DOUALA (CIV/MIL), CM) observed 1900 UTC 02 June 2020
Temperature: 28.0°C (82°F)
Dewpoint: 25.0°C (77°F) [RH = 84%]
Pressure (altimeter): 29.85 inches Hg (1011.0 mb)
Winds: variable direction winds at 2 MPH (2 knots; 1.0 m/s)
Visibility: 6 or more miles (10+ km)
Ceiling: at least 12,000 feet AGL
Clouds: scattered clouds at 1300 feet AGL
few clouds at 2000 feet AGL
Weather: no significant weather observed at this time

METAR text: FKKD 021800Z VRB02KT 9999 FEW016 FEW020CB 28/25 Q1011 NOSIG
Conditions at: FKKD (DOUALA (CIV/MIL), CM) observed 1800 UTC 02 June 2020
Temperature: 28.0°C (82°F)
Dewpoint: 25.0°C (77°F) [RH = 84%]
Pressure (altimeter): 29.85 inches Hg (1011.0 mb)
Winds: variable direction winds at 2 MPH (2 knots; 1.0 m/s)
Visibility: 6 or more miles (10+ km)
Ceiling: at least 12,000 feet AGL
Clouds: few clouds at 1600 feet AGL
few clouds at 2000 feet AGL
Weather: no significant weather observed at this time

METAR text: FKKD 021700Z VRB04KT 9999 FEW016 FEW020CB 31/23 Q1011 NOSIG
Conditions at: FKKD (DOUALA (CIV/MIL), CM) observed 1700 UTC 02 June 2020
Temperature: 31.0°C (88°F)
Dewpoint: 23.0°C (73°F) [RH = 63%]
Pressure (altimeter): 29.85 inches Hg (1011.0 mb)
Winds: variable direction winds at 5 MPH (4 knots; 2.1 m/s)
Visibility: 6 or more miles (10+ km)
Ceiling: at least 12,000 feet AGL
Clouds: few clouds at 1600 feet AGL
few clouds at 2000 feet AGL
Weather: no significant weather observed at this time

METAR text: FKKD 021600Z VRB04KT 9999 FEW016 FEW020CB 32/24 Q1010 NOSIG
Conditions at: FKKD (DOUALA (CIV/MIL), CM) observed 1600 UTC 02 June 2020
Temperature: 32.0°C (90°F)
Dewpoint: 24.0°C (75°F) [RH = 63%]
Pressure (altimeter): 29.82 inches Hg (1010.0 mb)
Winds: variable direction winds at 5 MPH (4 knots; 2.1 m/s)
Visibility: 6 or more miles (10+ km)
Ceiling: at least 12,000 feet AGL
Clouds: few clouds at 1600 feet AGL
few clouds at 2000 feet AGL
Weather: no significant weather observed at this time

METAR text: FKKD 021500Z VRB05KT 9999 SCT016 FEW020CB 33/25 Q1011 NOSIG
Conditions at: FKKD (DOUALA (CIV/MIL), CM) observed 1500 UTC 02 June 2020
Temperature: 33.0°C (91°F)
Dewpoint: 25.0°C (77°F) [RH = 63%]
Pressure (altimeter): 29.85 inches Hg (1011.0 mb)
Winds: variable direction winds at 6 MPH (5 knots; 2.6 m/s)
Visibility: 6 or more miles (10+ km)
Ceiling: at least 12,000 feet AGL
Clouds: scattered clouds at 1600 feet AGL
few clouds at 2000 feet AGL
Weather: no significant weather observed at this time

METAR text: FKKD 021400Z VRB04KT 9999 SCT016 FEW020CB 32/25 Q1011 NOSIG
Conditions at: FKKD (DOUALA (CIV/MIL), CM) observed 1400 UTC 02 June 2020
Temperature: 32.0°C (90°F)
Dewpoint: 25.0°C (77°F) [RH = 67%]
Pressure (altimeter): 29.85 inches Hg (1011.0 mb)
Winds: variable direction winds at 5 MPH (4 knots; 2.1 m/s)
Visibility: 6 or more miles (10+ km)
Ceiling: at least 12,000 feet AGL
Clouds: scattered clouds at 1600 feet AGL
few clouds at 2000 feet AGL
Weather: no significant weather observed at this time

METAR text: FKKD 021300Z VRB04KT 9999 BKN016 FEW020CB 32/25 Q1012 NOSIG
Conditions at: FKKD (DOUALA (CIV/MIL), CM) observed 1300 UTC 02 June 2020
Temperature: 32.0°C (90°F)
Dewpoint: 25.0°C (77°F) [RH = 67%]
Pressure (altimeter): 29.88 inches Hg (1012.0 mb)
Winds: variable direction winds at 5 MPH (4 knots; 2.1 m/s)
Visibility: 6 or more miles (10+ km)
Ceiling: 1600 feet AGL
Clouds: broken clouds at 1600 feet AGL
few clouds at 2000 feet AGL
Weather: no significant weather observed at this time

METAR text: FKKD 021200Z 18004KT 120V260 9999 BKN016 FEW020CB 32/25 Q1012 NOSIG
Conditions at: FKKD (DOUALA (CIV/MIL), CM) observed 1200 UTC 02 June 2020
Temperature: 32.0°C (90°F)
Dewpoint: 25.0°C (77°F) [RH = 67%]
Pressure (altimeter): 29.88 inches Hg (1012.0 mb)
Winds: from the S (180 degrees) at 5 MPH (4 knots; 2.1 m/s)
Visibility: 6 or more miles (10+ km)
Ceiling: 1600 feet AGL
Clouds: broken clouds at 1600 feet AGL
few clouds at 2000 feet AGL
Weather: no significant weather observed at this time

METAR text: FKKD 021100Z VRB05KT 9999 BKN016 FEW020CB 31/25 Q1013 NOSIG
Conditions at: FKKD (DOUALA (CIV/MIL), CM) observed 1100 UTC 02 June 2020
Temperature: 31.0°C (88°F)
Dewpoint: 25.0°C (77°F) [RH = 71%]
Pressure (altimeter): 29.91 inches Hg (1013.0 mb)
Winds: variable direction winds at 6 MPH (5 knots; 2.6 m/s)
Visibility: 6 or more miles (10+ km)
Ceiling: 1600 feet AGL
Clouds: broken clouds at 1600 feet AGL
few clouds at 2000 feet AGL
Weather: no significant weather observed at this time

METAR text: FKKD 021000Z VRB04KT 9999 BKN016 FEW020CB 30/25 Q1013 NOSIG
Conditions at: FKKD (DOUALA (CIV/MIL), CM) observed 1000 UTC 02 June 2020
Temperature: 30.0°C (86°F)
Dewpoint: 25.0°C (77°F) [RH = 75%]
Pressure (altimeter): 29.91 inches Hg (1013.0 mb)
Winds: variable direction winds at 5 MPH (4 knots; 2.1 m/s)
Visibility: 6 or more miles (10+ km)
Ceiling: 1600 feet AGL
Clouds: broken clouds at 1600 feet AGL
few clouds at 2000 feet AGL
Weather: no significant weather observed at this time

METAR text: FKKD 020900Z VRB02KT 9999 SCT016 FEW020CB 29/24 Q1013 NOSIG
Conditions at: FKKD (DOUALA (CIV/MIL), CM) observed 0900 UTC 02 June 2020
Temperature: 29.0°C (84°F)
Dewpoint: 24.0°C (75°F) [RH = 74%]
Pressure (altimeter): 29.91 inches Hg (1013.0 mb)
Winds: variable direction winds at 2 MPH (2 knots; 1.0 m/s)
Visibility: 6 or more miles (10+ km)
Ceiling: at least 12,000 feet AGL
Clouds: scattered clouds at 1600 feet AGL
few clouds at 2000 feet AGL
Weather: no significant weather observed at this time

METAR text: FKKD 020800Z VRB02KT 8000 SCT013 FEW016CB 27/24 Q1014 NOSIG
Conditions at: FKKD (DOUALA (CIV/MIL), CM) observed 0800 UTC 02 June 2020
Temperature: 27.0°C (81°F)
Dewpoint: 24.0°C (75°F) [RH = 84%]
Pressure (altimeter): 29.94 inches Hg (1014.0 mb)
Winds: variable direction winds at 2 MPH (2 knots; 1.0 m/s)
Visibility: 5 miles ( 8 km)
Ceiling: at least 12,000 feet AGL
Clouds: scattered clouds at 1300 feet AGL
few clouds at 1600 feet AGL
Weather: no significant weather observed at this time

METAR text: FKKD 020700Z 36007KT 270V040 8000 SCT013 FEW016CB 26/23 Q1014 NOSIG
Conditions at: FKKD (DOUALA (CIV/MIL), CM) observed 0700 UTC 02 June 2020
Temperature: 26.0°C (79°F)
Dewpoint: 23.0°C (73°F) [RH = 84%]
Pressure (altimeter): 29.94 inches Hg (1014.0 mb)
Winds: from the N (360 degrees) at 8 MPH (7 knots; 3.6 m/s)
Visibility: 5 miles ( 8 km)
Ceiling: at least 12,000 feet AGL
Clouds: scattered clouds at 1300 feet AGL
few clouds at 1600 feet AGL
Weather: no significant weather observed at this time

METAR text: FKKD 020600Z VRB02KT 8000 SCT013 FEW016CB 24/23 Q1014 NOSIG
Conditions at: FKKD (DOUALA (CIV/MIL), CM) observed 0600 UTC 02 June 2020
Temperature: 24.0°C (75°F)
Dewpoint: 23.0°C (73°F) [RH = 94%]
Pressure (altimeter): 29.94 inches Hg (1014.0 mb)
Winds: variable direction winds at 2 MPH (2 knots; 1.0 m/s)
Visibility: 5 miles ( 8 km)
Ceiling: at least 12,000 feet AGL
Clouds: scattered clouds at 1300 feet AGL
few clouds at 1600 feet AGL
Weather: no significant weather observed at this time

METAR text: FKKD 020500Z 13002KT 8000 SCT014 FEW016CB 24/23 Q1013 NOSIG
Conditions at: FKKD (DOUALA (CIV/MIL), CM) observed 0500 UTC 02 June 2020
Temperature: 24.0°C (75°F)
Dewpoint: 23.0°C (73°F) [RH = 94%]
Pressure (altimeter): 29.91 inches Hg (1013.0 mb)
Winds: from the SE (130 degrees) at 2 MPH (2 knots; 1.0 m/s)
Visibility: 5 miles ( 8 km)
Ceiling: at least 12,000 feet AGL
Clouds: scattered clouds at 1400 feet AGL
few clouds at 1600 feet AGL
Weather: no significant weather observed at this time

METAR text: FKKD 020400Z 03002KT 9999 SCT014 FEW016CB 24/23 Q1013 NOSIG
Conditions at: FKKD (DOUALA (CIV/MIL), CM) observed 0400 UTC 02 June 2020
Temperature: 24.0°C (75°F)
Dewpoint: 23.0°C (73°F) [RH = 94%]
Pressure (altimeter): 29.91 inches Hg (1013.0 mb)
Winds: from the NNE (30 degrees) at 2 MPH (2 knots; 1.0 m/s)
Visibility: 6 or more miles (10+ km)
Ceiling: at least 12,000 feet AGL
Clouds: scattered clouds at 1400 feet AGL
few clouds at 1600 feet AGL
Weather: no significant weather observed at this time

Forecast for: FKKD (DOUALA (CIV/MIL), CM)
Text: TAF FKKD 031100Z 0312/0418 VRB06KT 9999 BKN016 FEW020CB
Forecast period: 1200 UTC 03 June 2020 to 1800 UTC 04 June 2020
Forecast type: FROM: standard forecast or significant change
Winds: variable direction winds at 7 MPH (6 knots; 3.1 m/s)
Visibility: 6 or more miles 10+ km)
Ceiling: 1600 feet AGL
Clouds: broken clouds at 1600 feet AGL
few clouds at 2000 feet AGL
Weather: no significant weather forecast for this period
Text: TEMPO 0317/0318 07010G20KT
Forecast period: 1700 to 1800 UTC 03 June 2020
Forecast type: TEMPORARY: The following changes expected for less than half the time period
Winds: from the ENE (70 degrees) at 12 MPH (10 knots; 5.1 m/s)
gusting to 23 MPH (20 knots; 10.3 m/s)
Visibility: missing
Ceiling: unknown
Clouds: missing
Weather: no significant weather forecast for this period
Text: TEMPO 0318/0322 4000 TSRA BKN013 SCT016CB
Forecast period: 1800 to 2200 UTC 03 June 2020
Forecast type: TEMPORARY: The following changes expected for less than half the time period
Visibility: 2.49 miles (4.01 km)
Ceiling: 1300 feet AGL
Clouds: broken clouds at 1300 feet AGL
scattered clouds at 1600 feet AGL
Weather: TSRA  (rain associated with thunderstorm(s))